Time,TemperatureF,DewpointF,PressureIn,WindDirection,WindDirectionDegrees,WindSpeedMPH,WindSpeedGustMPH,Humidity,HourlyPrecipIn,Conditions,Clouds,dailyrainin,SoftwareType,DateUTC
2013-01-28 00:04:00,30.0,-99.9,-100.00,SSE,154,1.0,4.0,-999,-99.99,,,-99.99,,2013-01-28 05:04:00,
2013-01-28 00:12:00,30.0,-99.9,-100.00,SSE,154,1.0,4.0,-999,-99.99,,,-99.99,,2013-01-28 05:12:00,
2013-01-28 00:22:00,30.0,-99.9,-100.00,SSE,154,1.0,4.0,-999,-99.99,,,-99.99,,2013-01-28 05:22:00,
2013-01-28 00:32:00,30.0,-99.9,-100.00,SSE,154,1.0,4.0,-999,-99.99,,,-99.99,,2013-01-28 05:32:00,
2013-01-28 00:40:00,30.0,-99.9,-100.00,SE,139,0.0,4.0,-999,-99.99,,,-99.99,,2013-01-28 05:40:00,
2013-01-28 01:02:00,30.0,-99.9,-100.00,SE,139,0.0,4.0,-999,-99.99,,,-99.99,,2013-01-28 06:02:00,
2013-01-28 01:12:00,30.0,-99.9,-100.00,SE,139,0.0,4.0,-999,-99.99,,,-99.99,,2013-01-28 06:12:00,
2013-01-28 01:22:00,30.0,-99.9,-100.00,SE,139,0.0,4.0,-999,-99.99,,,-99.99,,2013-01-28 06:22:00,
2013-01-28 01:33:00,30.0,-99.9,-100.00,SE,139,0.0,4.0,-999,-99.99,,,-99.99,,2013-01-28 06:33:00,
2013-01-28 01:40:00,31.0,-99.9,-100.00,SSE,148,0.0,6.0,-999,-99.99,,,-99.99,,2013-01-28 06:40:00,
2013-01-28 02:03:00,31.0,-99.9,-100.00,SSE,148,0.0,6.0,-999,-99.99,,,-99.99,,2013-01-28 07:03:00,
2013-01-28 02:11:00,31.0,-99.9,-100.00,SSE,148,0.0,6.0,-999,-99.99,,,-99.99,,2013-01-28 07:11:00,
2013-01-28 02:22:00,31.0,-99.9,-100.00,SSE,148,0.0,6.0,-999,-99.99,,,-99.99,,2013-01-28 07:22:00,
2013-01-28 02:32:00,31.0,-99.9,-100.00,SSE,148,0.0,6.0,-999,-99.99,,,-99.99,,2013-01-28 07:32:00,
2013-01-28 03:02:00,30.0,-99.9,-100.00,North,-999,0.0,0.0,-999,-99.99,,,-99.99,,2013-01-28 08:02:00,
2013-01-28 03:11:00,30.0,-99.9,-100.00,North,-999,0.0,0.0,-999,-99.99,,,-99.99,,2013-01-28 08:11:00,
2013-01-28 03:22:00,30.0,-99.9,-100.00,North,-999,0.0,0.0,-999,-99.99,,,-99.99,,2013-01-28 08:22:00,
2013-01-28 03:32:00,30.0,-99.9,-100.00,SE,140,0.0,12.0,-999,-99.99,,,-99.99,,2013-01-28 08:32:00,
2013-01-28 03:40:00,31.0,-99.9,-100.00,SSE,147,0.0,5.0,-999,-99.99,,,-99.99,,2013-01-28 08:40:00,
2013-01-28 03:42:00,30.0,-99.9,-100.00,SE,140,0.0,12.0,-999,-99.99,,,-99.99,,2013-01-28 08:42:00,
2013-01-28 03:53:00,30.0,-99.9,-100.00,SE,140,0.0,12.0,-999,-99.99,,,-99.99,,2013-01-28 08:53:00,
2013-01-28 04:02:00,31.0,-99.9,-100.00,SSE,147,0.0,5.0,-999,-99.99,,,-99.99,,2013-01-28 09:02:00,
2013-01-28 04:12:00,31.0,-99.9,-100.00,SSE,147,0.0,5.0,-999,-99.99,,,-99.99,,2013-01-28 09:12:00,
2013-01-28 04:22:00,31.0,-99.9,-100.00,SSE,147,0.0,5.0,-999,-99.99,,,-99.99,,2013-01-28 09:22:00,
2013-01-28 04:33:00,31.0,-99.9,-100.00,SSE,147,0.0,5.0,-999,-99.99,,,-99.99,,2013-01-28 09:33:00,
2013-01-28 04:40:00,30.0,-99.9,-100.00,SE,136,3.0,7.0,-999,-99.99,,,-99.99,,2013-01-28 09:40:00,
2013-01-28 05:02:00,30.0,-99.9,-100.00,SE,136,3.0,7.0,-999,-99.99,,,-99.99,,2013-01-28 10:02:00,
2013-01-28 05:11:00,30.0,-99.9,-100.00,SE,136,3.0,7.0,-999,-99.99,,,-99.99,,2013-01-28 10:11:00,
2013-01-28 05:21:00,30.0,-99.9,-100.00,SE,136,3.0,7.0,-999,-99.99,,,-99.99,,2013-01-28 10:21:00,
2013-01-28 05:32:00,30.0,-99.9,-100.00,SE,136,3.0,7.0,-999,-99.99,,,-99.99,,2013-01-28 10:32:00,
2013-01-28 05:40:00,30.0,-99.9,-100.00,North,-999,0.0,1.0,-999,-99.99,,,-99.99,,2013-01-28 10:40:00,
2013-01-28 06:03:00,30.0,-99.9,-100.00,North,-999,0.0,1.0,-999,-99.99,,,-99.99,,2013-01-28 11:03:00,
2013-01-28 06:12:00,30.0,-99.9,-100.00,North,-999,0.0,1.0,-999,-99.99,,,-99.99,,2013-01-28 11:12:00,
2013-01-28 06:22:00,30.0,-99.9,-100.00,North,-999,0.0,1.0,-999,-99.99,,,-99.99,,2013-01-28 11:22:00,
2013-01-28 06:33:00,30.0,-99.9,-100.00,North,-999,0.0,1.0,-999,-99.99,,,-99.99,,2013-01-28 11:33:00,
2013-01-28 06:40:00,30.0,-99.9,-100.00,SSE,151,1.0,6.0,-999,-99.99,,,-99.99,,2013-01-28 11:40:00,
2013-01-28 07:04:00,30.0,-99.9,-100.00,SSE,151,1.0,6.0,-999,-99.99,,,-99.99,,2013-01-28 12:04:00,
2013-01-28 07:12:00,30.0,-99.9,-100.00,SSE,151,1.0,6.0,-999,-99.99,,,-99.99,,2013-01-28 12:12:00,
2013-01-28 07:23:00,30.0,-99.9,-100.00,SSE,151,1.0,6.0,-999,-99.99,,,-99.99,,2013-01-28 12:23:00,
2013-01-28 07:33:00,30.0,-99.9,-100.00,SSE,151,1.0,6.0,-999,-99.99,,,-99.99,,2013-01-28 12:33:00,
2013-01-28 07:40:00,29.0,-99.9,-100.00,North,-999,0.0,0.0,-999,-99.99,,,-99.99,,2013-01-28 12:40:00,
2013-01-28 08:03:00,29.0,-99.9,-100.00,North,-999,0.0,0.0,-999,-99.99,,,-99.99,,2013-01-28 13:03:00,
2013-01-28 08:13:00,29.0,-99.9,-100.00,North,-999,0.0,0.0,-999,-99.99,,,-99.99,,2013-01-28 13:13:00,
2013-01-28 08:23:00,29.0,-99.9,-100.00,North,-999,0.0,0.0,-999,-99.99,,,-99.99,,2013-01-28 13:23:00,
2013-01-28 08:34:00,29.0,-99.9,-100.00,North,-999,0.0,0.0,-999,-99.99,,,-99.99,,2013-01-28 13:34:00,
2013-01-28 08:40:00,29.0,-99.9,-100.00,North,-999,0.0,0.0,-999,-99.99,,,-99.99,,2013-01-28 13:40:00,
2013-01-28 09:03:00,29.0,-99.9,-100.00,North,-999,0.0,0.0,-999,-99.99,,,-99.99,,2013-01-28 14:03:00,
2013-01-28 09:13:00,29.0,-99.9,-100.00,North,-999,0.0,0.0,-999,-99.99,,,-99.99,,2013-01-28 14:13:00,
2013-01-28 09:23:00,29.0,-99.9,-100.00,North,-999,0.0,0.0,-999,-99.99,,,-99.99,,2013-01-28 14:23:00,
2013-01-28 09:33:00,29.0,-99.9,-100.00,North,-999,0.0,0.0,-999,-99.99,,,-99.99,,2013-01-28 14:33:00,
2013-01-28 09:40:00,31.0,-99.9,-100.00,North,-999,0.0,0.0,-999,-99.99,,,-99.99,,2013-01-28 14:40:00,
2013-01-28 10:04:00,31.0,-99.9,-100.00,North,-999,0.0,0.0,-999,-99.99,,,-99.99,,2013-01-28 15:04:00,
2013-01-28 10:13:00,31.0,-99.9,-100.00,North,-999,0.0,0.0,-999,-99.99,,,-99.99,,2013-01-28 15:13:00,
2013-01-28 10:24:00,31.0,-99.9,-100.00,North,-999,0.0,0.0,-999,-99.99,,,-99.99,,2013-01-28 15:24:00,
2013-01-28 10:34:00,31.0,-99.9,-100.00,North,-999,0.0,0.0,-999,-99.99,,,-99.99,,2013-01-28 15:34:00,
2013-01-28 10:40:00,33.0,-99.9,-100.00,North,-999,0.0,0.0,-999,-99.99,,,-99.99,,2013-01-28 15:40:00,
2013-01-28 11:05:00,33.0,-99.9,-100.00,North,-999,0.0,0.0,-999,-99.99,,,-99.99,,2013-01-28 16:05:00,
2013-01-28 11:13:00,33.0,-99.9,-100.00,North,-999,0.0,0.0,-999,-99.99,,,-99.99,,2013-01-28 16:13:00,
2013-01-28 11:23:00,33.0,-99.9,-100.00,North,-999,0.0,0.0,-999,-99.99,,,-99.99,,2013-01-28 16:23:00,
2013-01-28 11:33:00,33.0,-99.9,-100.00,North,-999,0.0,0.0,-999,-99.99,,,-99.99,,2013-01-28 16:33:00,
2013-01-28 11:40:00,33.0,-99.9,-100.00,North,-999,0.0,3.0,-999,-99.99,,,-99.99,,2013-01-28 16:40:00,
2013-01-28 12:03:00,33.0,-99.9,-100.00,North,-999,0.0,3.0,-999,-99.99,,,-99.99,,2013-01-28 17:03:00,
2013-01-28 12:12:00,33.0,-99.9,-100.00,North,-999,0.0,3.0,-999,-99.99,,,-99.99,,2013-01-28 17:12:00,
2013-01-28 12:23:00,33.0,-99.9,-100.00,North,-999,0.0,3.0,-999,-99.99,,,-99.99,,2013-01-28 17:23:00,
2013-01-28 12:33:00,33.0,-99.9,-100.00,North,-999,0.0,3.0,-999,-99.99,,,-99.99,,2013-01-28 17:33:00,
2013-01-28 12:40:00,34.0,-99.9,-100.00,North,352,5.0,10.0,-999,-99.99,,,-99.99,,2013-01-28 17:40:00,
2013-01-28 13:03:00,34.0,-99.9,-100.00,North,352,5.0,10.0,-999,-99.99,,,-99.99,,2013-01-28 18:03:00,
2013-01-28 13:13:00,34.0,-99.9,-100.00,North,352,5.0,10.0,-999,-99.99,,,-99.99,,2013-01-28 18:13:00,
2013-01-28 13:23:00,34.0,-99.9,-100.00,North,352,5.0,10.0,-999,-99.99,,,-99.99,,2013-01-28 18:23:00,
2013-01-28 13:33:00,34.0,-99.9,-100.00,North,352,5.0,10.0,-999,-99.99,,,-99.99,,2013-01-28 18:33:00,
2013-01-28 14:03:00,36.0,-99.9,-100.00,NNE,15,4.0,7.0,-999,-99.99,,,-99.99,,2013-01-28 19:03:00,
2013-01-28 14:13:00,36.0,-99.9,-100.00,NNE,15,4.0,7.0,-999,-99.99,,,-99.99,,2013-01-28 19:13:00,
2013-01-28 14:23:00,36.0,-99.9,-100.00,NNE,15,4.0,7.0,-999,-99.99,,,-99.99,,2013-01-28 19:23:00,
2013-01-28 14:33:00,34.0,-99.9,-100.00,NNE,21,8.0,11.0,-999,-99.99,,,-99.99,,2013-01-28 19:33:00,
2013-01-28 14:43:00,34.0,-99.9,-100.00,NNE,21,8.0,11.0,-999,-99.99,,,-99.99,,2013-01-28 19:43:00,
2013-01-28 14:53:00,34.0,-99.9,-100.00,NNE,21,8.0,11.0,-999,-99.99,,,-99.99,,2013-01-28 19:53:00,
2013-01-28 15:03:00,32.0,-99.9,-100.00,NE,51,4.0,6.0,-999,-99.99,,,-99.99,,2013-01-28 20:03:00,
2013-01-28 15:12:00,32.0,-99.9,-100.00,NE,51,4.0,6.0,-999,-99.99,,,-99.99,,2013-01-28 20:12:00,
2013-01-28 15:22:00,32.0,-99.9,-100.00,NE,51,4.0,6.0,-999,-99.99,,,-99.99,,2013-01-28 20:22:00,
2013-01-28 15:33:00,33.0,-99.9,-100.00,NNW,327,3.0,10.0,-999,-99.99,,,-99.99,,2013-01-28 20:33:00,
2013-01-28 15:40:00,33.0,-99.9,-100.00,North,354,7.0,9.0,-999,-99.99,,,-99.99,,2013-01-28 20:40:00,
2013-01-28 15:43:00,33.0,-99.9,-100.00,NNW,327,3.0,10.0,-999,-99.99,,,-99.99,,2013-01-28 20:43:00,
2013-01-28 15:53:00,33.0,-99.9,-100.00,NNW,327,3.0,10.0,-999,-99.99,,,-99.99,,2013-01-28 20:53:00,
2013-01-28 16:04:00,33.0,-99.9,-100.00,North,354,7.0,9.0,-999,-99.99,,,-99.99,,2013-01-28 21:04:00,
2013-01-28 16:12:00,33.0,-99.9,-100.00,North,354,7.0,9.0,-999,-99.99,,,-99.99,,2013-01-28 21:12:00,
2013-01-28 16:23:00,33.0,-99.9,-100.00,North,354,7.0,9.0,-999,-99.99,,,-99.99,,2013-01-28 21:23:00,
2013-01-28 16:34:00,33.0,-99.9,-100.00,North,354,7.0,9.0,-999,-99.99,,,-99.99,,2013-01-28 21:34:00,
2013-01-28 16:40:00,33.0,-99.9,-100.00,NE,34,4.0,6.0,-999,-99.99,,,-99.99,,2013-01-28 21:40:00,
2013-01-28 17:03:00,33.0,-99.9,-100.00,NE,34,4.0,6.0,-999,-99.99,,,-99.99,,2013-01-28 22:03:00,
2013-01-28 17:12:00,33.0,-99.9,-100.00,NE,34,4.0,6.0,-999,-99.99,,,-99.99,,2013-01-28 22:12:00,
2013-01-28 17:23:00,33.0,-99.9,-100.00,NE,34,4.0,6.0,-999,-99.99,,,-99.99,,2013-01-28 22:23:00,
2013-01-28 17:33:00,33.0,-99.9,-100.00,NE,34,4.0,6.0,-999,-99.99,,,-99.99,,2013-01-28 22:33:00,
2013-01-28 17:40:00,32.0,-99.9,-100.00,North,-999,0.0,0.0,-999,-99.99,,,-99.99,,2013-01-28 22:40:00,
2013-01-28 18:03:00,32.0,-99.9,-100.00,North,-999,0.0,0.0,-999,-99.99,,,-99.99,,2013-01-28 23:03:00,
2013-01-28 18:12:00,32.0,-99.9,-100.00,North,-999,0.0,0.0,-999,-99.99,,,-99.99,,2013-01-28 23:12:00,
2013-01-28 18:22:00,32.0,-99.9,-100.00,North,-999,0.0,0.0,-999,-99.99,,,-99.99,,2013-01-28 23:22:00,
2013-01-28 18:33:00,32.0,-99.9,-100.00,North,-999,0.0,0.0,-999,-99.99,,,-99.99,,2013-01-28 23:33:00,
2013-01-28 18:40:00,32.0,-99.9,-100.00,North,-999,0.0,0.0,-999,-99.99,,,-99.99,,2013-01-28 23:40:00,
2013-01-28 19:03:00,32.0,-99.9,-100.00,North,-999,0.0,0.0,-999,-99.99,,,-99.99,,2013-01-29 00:03:00,
2013-01-28 19:13:00,32.0,-99.9,-100.00,North,-999,0.0,0.0,-999,-99.99,,,-99.99,,2013-01-29 00:13:00,
2013-01-28 19:22:00,32.0,-99.9,-100.00,North,-999,0.0,0.0,-999,-99.99,,,-99.99,,2013-01-29 00:22:00,
2013-01-28 19:33:00,32.0,-99.9,-100.00,North,-999,0.0,0.0,-999,-99.99,,,-99.99,,2013-01-29 00:33:00,
2013-01-28 19:40:00,32.0,-99.9,-100.00,North,-999,0.0,0.0,-999,-99.99,,,-99.99,,2013-01-29 00:40:00,
2013-01-28 20:03:00,32.0,-99.9,-100.00,North,-999,0.0,0.0,-999,-99.99,,,-99.99,,2013-01-29 01:03:00,
2013-01-28 20:12:00,32.0,-99.9,-100.00,North,-999,0.0,0.0,-999,-99.99,,,-99.99,,2013-01-29 01:12:00,
2013-01-28 20:23:00,32.0,-99.9,-100.00,North,-999,0.0,0.0,-999,-99.99,,,-99.99,,2013-01-29 01:23:00,
2013-01-28 20:32:00,32.0,-99.9,-100.00,North,-999,0.0,0.0,-999,-99.99,,,-99.99,,2013-01-29 01:32:00,
2013-01-28 20:40:00,32.0,-99.9,-100.00,North,-999,0.0,0.0,-999,-99.99,,,-99.99,,2013-01-29 01:40:00,
2013-01-28 21:03:00,32.0,-99.9,-100.00,North,-999,0.0,0.0,-999,-99.99,,,-99.99,,2013-01-29 02:03:00,
2013-01-28 21:13:00,32.0,-99.9,-100.00,North,-999,0.0,0.0,-999,-99.99,,,-99.99,,2013-01-29 02:13:00,
2013-01-28 21:22:00,32.0,-99.9,-100.00,North,-999,0.0,0.0,-999,-99.99,,,-99.99,,2013-01-29 02:22:00,
2013-01-28 21:33:00,32.0,-99.9,-100.00,North,-999,0.0,0.0,-999,-99.99,,,-99.99,,2013-01-29 02:33:00,
2013-01-28 21:40:00,32.0,-99.9,-100.00,SSE,157,6.0,9.0,-999,-99.99,,,-99.99,,2013-01-29 02:40:00,
2013-01-28 22:03:00,32.0,-99.9,-100.00,SSE,157,6.0,9.0,-999,-99.99,,,-99.99,,2013-01-29 03:03:00,
2013-01-28 22:12:00,32.0,-99.9,-100.00,SSE,157,6.0,9.0,-999,-99.99,,,-99.99,,2013-01-29 03:12:00,
2013-01-28 22:22:00,32.0,-99.9,-100.00,SSE,157,6.0,9.0,-999,-99.99,,,-99.99,,2013-01-29 03:22:00,
2013-01-28 22:32:00,32.0,-99.9,-100.00,SSE,157,6.0,9.0,-999,-99.99,,,-99.99,,2013-01-29 03:32:00,
2013-01-28 22:40:00,32.0,-99.9,-100.00,SE,140,6.0,11.0,-999,-99.99,,,-99.99,,2013-01-29 03:40:00,
2013-01-28 23:03:00,32.0,-99.9,-100.00,SE,140,6.0,11.0,-999,-99.99,,,-99.99,,2013-01-29 04:03:00,
2013-01-28 23:12:00,32.0,-99.9,-100.00,SE,140,6.0,11.0,-999,-99.99,,,-99.99,,2013-01-29 04:12:00,
2013-01-28 23:22:00,32.0,-99.9,-100.00,SE,140,6.0,11.0,-999,-99.99,,,-99.99,,2013-01-29 04:22:00,
2013-01-28 23:32:00,32.0,-99.9,-100.00,SE,140,6.0,11.0,-999,-99.99,,,-99.99,,2013-01-29 04:32:00,
2013-01-28 23:40:00,32.0,-99.9,-100.00,SE,142,4.0,7.0,-999,-99.99,,,-99.99,,2013-01-29 04:40:00,